KELK/ELK METAR and TAF weather

Enter ICAO airport designator
Station Type Date Time Source
KELK METAR 2018/10/16 20:55 UTC NOAA

KELK 162055Z AUTO 00000KT 10SM BKN070 16/M04 A3027 RMK AO2 T01641038


Station Type Date Time Source
KELK Decoded METAR 2018/10/16 20:55 UTC NOAA

Station name not available
Oct 16, 2018 - 04:55 PM EDT / 2018.10.16 2055 UTC
Wind: Calm:0
Visibility: 10 mile(s):0
Sky conditions: mostly cloudy
Temperature: 61.5 F (16.4 C)
Dew Point: 25.2 F (-3.8 C)
Relative Humidity: 24%
Pressure (altimeter): 30.27 in. Hg (1025 hPa)
ob: KELK 162055Z AUTO 00000KT 10SM BKN070 16/M04 A3027 RMK AO2 T01641038
cycle: 21

Station Type Date Time Source
KELK TAF UTC NOAA

Error!


Example: see airport list